Time;durP1;ratioP1;P1;durP2;ratioP2;P2;SDS_P1;SDS_P2;PMS_P1;PMS_P2;Temp;Humidity;BMP_temperature;BMP_pressure;BME280_temperature;BME280_humidity;BME280_pressure;Samples;Min_cycle;Max_cycle;Signal;HPM_P1;HPM_P2
2021/10/12 00:01:07;;;;;;;15.13;4.03;;;8.70;99.90;;;;;;5069813;28;20064;-46
2021/10/12 00:03:33;;;;;;;9.73;4.40;;;8.70;99.90;;;;;;5050833;28;20494;-45
2021/10/12 00:05:59;;;;;;;16.13;4.13;;;8.70;99.90;;;;;;5069570;28;20457;-45
2021/10/12 00:08:25;;;;;;;11.55;4.25;;;8.80;99.90;;;;;;5068758;28;20044;-48
2021/10/12 00:10:50;;;;;;;19.40;4.95;;;8.80;99.90;;;;;;5069209;28;20054;-48
2021/10/12 00:13:17;;;;;;;13.55;4.93;;;8.80;99.90;;;;;;5069305;28;20362;-47
2021/10/12 00:15:42;;;;;;;14.32;4.28;;;8.80;99.90;;;;;;5069546;28;20025;-45
2021/10/12 00:18:07;;;;;;;15.82;4.43;;;8.80;99.90;;;;;;5068613;28;20036;-47
2021/10/12 00:20:33;;;;;;;18.73;4.10;;;8.80;99.90;;;;;;5068894;28;20071;-46
2021/10/12 00:22:59;;;;;;;10.25;4.00;;;8.80;99.90;;;;;;5069156;28;20032;-45
2021/10/12 00:25:24;;;;;;;10.50;3.70;;;8.80;99.90;;;;;;5069113;28;20064;-46
2021/10/12 00:27:50;;;;;;;15.40;4.30;;;8.80;99.90;;;;;;5068207;28;20045;-45
2021/10/12 00:30:16;;;;;;;17.05;4.75;;;8.80;99.90;;;;;;5069324;28;20039;-46
2021/10/12 00:32:41;;;;;;;12.60;3.58;;;8.80;99.90;;;;;;5051038;28;20432;-49
2021/10/12 00:35:07;;;;;;;16.55;4.13;;;8.70;99.90;;;;;;5068429;28;20035;-46
2021/10/12 00:37:33;;;;;;;13.23;4.55;;;8.70;99.90;;;;;;5068122;28;20509;-45
2021/10/12 00:39:58;;;;;;;20.00;4.80;;;8.70;99.90;;;;;;5068895;28;20141;-47
2021/10/12 00:42:24;;;;;;;12.55;4.05;;;8.70;99.90;;;;;;5069072;28;20044;-48
2021/10/12 00:44:50;;;;;;;17.52;5.13;;;8.60;99.90;;;;;;5069171;28;20035;-45
2021/10/12 00:47:15;;;;;;;17.13;4.28;;;8.60;99.90;;;;;;5068131;28;20123;-47
2021/10/12 00:49:41;;;;;;;18.83;5.07;;;8.70;99.90;;;;;;5068394;28;20049;-48
2021/10/12 00:52:06;;;;;;;8.43;3.83;;;8.60;99.90;;;;;;5068591;28;20470;-46
2021/10/12 00:54:32;;;;;;;10.70;3.80;;;8.60;99.90;;;;;;5068737;28;20051;-46
2021/10/12 00:56:57;;;;;;;19.20;4.90;;;8.60;99.90;;;;;;5068572;28;20028;-46
2021/10/12 00:59:23;;;;;;;11.90;4.20;;;8.60;99.90;;;;;;5067485;28;20044;-46
2021/10/12 01:01:48;;;;;;;24.38;4.25;;;8.60;99.90;;;;;;5034083;28;20043;-46
2021/10/12 01:04:15;;;;;;;13.88;4.25;;;8.60;99.90;;;;;;5067709;28;20044;-45
2021/10/12 01:06:40;;;;;;;11.32;4.03;;;8.70;99.90;;;;;;5050178;28;20036;-45
2021/10/12 01:09:06;;;;;;;12.38;3.58;;;8.70;99.90;;;;;;5049799;28;20485;-45
2021/10/12 01:11:35;;;;;;;14.55;3.72;;;8.70;99.90;;;;;;5068440;28;20040;-46
2021/10/12 01:14:02;;;;;;;10.85;3.17;;;8.70;99.90;;;;;;5050482;28;20032;-45
2021/10/12 01:16:28;;;;;;;10.85;3.10;;;8.80;99.90;;;;;;5068511;28;20033;-45
2021/10/12 01:19:05;;;;;;;15.25;3.50;;;8.80;99.90;;;;;;5067449;28;20389;-44
2021/10/12 01:21:41;;;;;;;10.93;2.78;;;8.80;99.90;;;;;;5050360;28;20086;-44
2021/10/12 01:24:07;;;;;;;11.75;3.50;;;8.80;99.90;;;;;;5068194;28;20040;-45
2021/10/12 01:26:33;;;;;;;14.40;3.42;;;8.80;99.90;;;;;;5068290;28;20453;-45
2021/10/12 01:28:59;;;;;;;10.02;3.03;;;8.80;99.90;;;;;;5067540;28;20049;-45
2021/10/12 01:31:27;;;;;;;11.20;3.25;;;8.80;99.90;;;;;;5050214;28;20173;-45
2021/10/12 01:33:53;;;;;;;22.52;3.40;;;8.80;99.90;;;;;;5067970;28;20031;-47
2021/10/12 01:36:19;;;;;;;12.57;2.95;;;8.70;99.90;;;;;;5067896;28;20390;-44
2021/10/12 01:38:44;;;;;;;15.70;2.45;;;8.80;99.90;;;;;;5067690;28;20505;-44
2021/10/12 01:41:11;;;;;;;11.27;2.90;;;8.70;99.90;;;;;;5068141;28;20037;-45
2021/10/12 01:43:37;;;;;;;9.60;2.85;;;8.70;99.90;;;;;;5068408;28;20020;-44
2021/10/12 01:46:05;;;;;;;12.90;2.70;;;8.70;99.90;;;;;;5067964;28;20032;-45
2021/10/12 01:48:32;;;;;;;11.80;3.00;;;8.60;99.90;;;;;;5067484;28;20414;-44
2021/10/12 01:50:57;;;;;;;14.05;3.20;;;8.70;99.90;;;;;;5067731;28;20192;-45
2021/10/12 01:53:23;;;;;;;11.95;2.65;;;8.60;99.90;;;;;;5068348;28;20032;-44
2021/10/12 01:55:48;;;;;;;11.75;3.03;;;8.70;99.90;;;;;;5067976;28;20109;-43
2021/10/12 01:58:14;;;;;;;14.02;2.92;;;8.70;99.90;;;;;;5067136;28;20029;-44
2021/10/12 02:00:40;;;;;;;11.45;2.90;;;8.70;99.90;;;;;;5067899;28;20136;-45
2021/10/12 02:03:05;;;;;;;12.50;3.13;;;8.70;99.90;;;;;;5067954;28;20029;-44
2021/10/12 02:05:31;;;;;;;10.82;3.00;;;8.70;99.90;;;;;;5067689;28;20101;-43
2021/10/12 02:07:57;;;;;;;13.05;2.75;;;8.80;99.90;;;;;;5047332;28;20029;-44
2021/10/12 02:10:22;;;;;;;7.35;3.17;;;8.70;99.90;;;;;;5048672;28;20069;-46
2021/10/12 02:12:48;;;;;;;17.70;3.08;;;8.70;99.90;;;;;;5051569;28;20441;-46
2021/10/12 02:15:14;;;;;;;10.40;3.20;;;8.80;99.90;;;;;;5051558;28;20079;-46
2021/10/12 02:17:40;;;;;;;10.68;2.50;;;8.70;99.90;;;;;;5033232;28;20333;-44
2021/10/12 02:20:06;;;;;;;13.02;3.28;;;8.70;99.90;;;;;;5051307;28;20072;-45
2021/10/12 02:22:32;;;;;;;9.57;2.83;;;8.70;99.90;;;;;;5051352;28;20033;-45
2021/10/12 02:24:58;;;;;;;6.85;2.63;;;8.70;99.90;;;;;;5051425;28;20095;-46
2021/10/12 02:27:23;;;;;;;11.10;3.35;;;8.80;99.90;;;;;;5050855;28;20132;-45
2021/10/12 02:29:49;;;;;;;14.48;2.83;;;8.80;99.90;;;;;;5051223;28;20068;-46
2021/10/12 02:32:16;;;;;;;15.25;3.28;;;8.80;99.90;;;;;;5051385;28;20021;-45
2021/10/12 02:34:41;;;;;;;10.65;2.83;;;8.80;99.90;;;;;;5063246;28;20028;-45
2021/10/12 02:37:07;;;;;;;26.67;2.72;;;8.80;99.90;;;;;;5070691;28;20051;-45
2021/10/12 02:39:32;;;;;;;15.02;2.60;;;8.80;99.90;;;;;;5071357;28;20171;-45
2021/10/12 02:41:58;;;;;;;17.77;3.10;;;8.80;99.90;;;;;;5071392;28;20037;-45
2021/10/12 02:44:23;;;;;;;14.05;3.40;;;8.90;99.90;;;;;;5071441;28;20384;-46
2021/10/12 02:46:49;;;;;;;11.52;2.63;;;8.80;99.90;;;;;;5071063;28;20041;-45
2021/10/12 02:49:14;;;;;;;13.00;2.88;;;8.90;99.90;;;;;;5070288;28;20044;-45
2021/10/12 02:51:40;;;;;;;15.63;3.47;;;8.90;99.90;;;;;;5071082;28;20048;-46
2021/10/12 02:54:05;;;;;;;11.80;3.05;;;8.90;99.90;;;;;;5070925;28;20037;-45
2021/10/12 02:56:31;;;;;;;12.35;3.10;;;8.90;99.90;;;;;;5052849;28;20069;-44
2021/10/12 02:58:56;;;;;;;11.35;2.95;;;8.90;99.90;;;;;;5069687;28;20132;-45
2021/10/12 03:01:22;;;;;;;8.02;3.63;;;8.90;99.90;;;;;;5070811;28;20045;-44
2021/10/12 03:03:47;;;;;;;15.32;4.00;;;8.90;99.90;;;;;;5070011;28;20028;-45
2021/10/12 03:06:13;;;;;;;9.98;4.53;;;8.90;99.90;;;;;;5070533;28;20056;-46
2021/10/12 03:08:39;;;;;;;11.68;4.10;;;8.90;99.90;;;;;;5070483;28;20047;-46
2021/10/12 03:11:04;;;;;;;11.45;3.88;;;8.90;99.90;;;;;;5070422;28;20036;-45
2021/10/12 03:13:30;;;;;;;7.72;4.47;;;9.00;99.90;;;;;;5070391;28;20502;-45
2021/10/12 03:15:56;;;;;;;11.45;3.90;;;9.00;99.90;;;;;;5070399;28;20035;-47
2021/10/12 03:18:21;;;;;;;18.58;5.78;;;9.00;99.90;;;;;;5069793;28;20116;-45
2021/10/12 03:20:47;;;;;;;12.77;4.43;;;9.00;99.90;;;;;;5069787;28;20362;-46
2021/10/12 03:23:12;;;;;;;12.13;4.88;;;9.00;99.90;;;;;;5070113;28;20068;-45
2021/10/12 03:25:38;;;;;;;10.40;4.72;;;9.00;99.90;;;;;;5070368;28;20094;-46
2021/10/12 03:28:04;;;;;;;12.85;4.85;;;9.00;99.90;;;;;;5067918;28;20469;-46
2021/10/12 03:30:29;;;;;;;16.30;4.93;;;9.10;99.90;;;;;;5070021;28;20029;-45
2021/10/12 03:32:55;;;;;;;14.63;4.00;;;9.10;99.90;;;;;;5070151;28;20029;-45
2021/10/12 03:35:29;;;;;;;18.33;4.70;;;9.10;99.90;;;;;;5069128;28;20369;-47
2021/10/12 03:37:55;;;;;;;16.30;5.28;;;9.10;99.90;;;;;;5050538;28;20417;-46
2021/10/12 03:40:21;;;;;;;10.45;4.60;;;9.10;99.90;;;;;;5069886;28;20304;-46
2021/10/12 03:42:48;;;;;;;13.38;5.03;;;9.10;99.90;;;;;;5069389;28;20119;-45
2021/10/12 03:45:13;;;;;;;11.18;4.70;;;9.10;99.90;;;;;;5069638;28;20033;-45
2021/10/12 03:47:39;;;;;;;11.20;4.25;;;9.10;99.90;;;;;;5069215;28;20547;-47
2021/10/12 03:50:05;;;;;;;14.07;5.60;;;9.20;99.90;;;;;;5069412;28;20123;-46
2021/10/12 03:52:30;;;;;;;11.43;4.88;;;9.10;99.90;;;;;;5069739;28;20033;-46
2021/10/12 03:54:56;;;;;;;13.70;5.45;;;9.10;99.90;;;;;;5051632;28;20059;-48
2021/10/12 03:57:21;;;;;;;11.32;5.35;;;9.10;99.90;;;;;;5069157;28;20116;-46
2021/10/12 03:59:47;;;;;;;17.27;6.07;;;9.10;99.90;;;;;;5069020;28;20059;-45
2021/10/12 04:02:12;;;;;;;13.93;5.82;;;9.10;99.90;;;;;;5068246;28;20047;-46
2021/10/12 04:04:38;;;;;;;16.13;5.18;;;9.10;99.90;;;;;;5067716;28;20100;-47
2021/10/12 04:07:03;;;;;;;10.07;5.10;;;9.00;99.90;;;;;;5068792;28;20126;-46
2021/10/12 04:09:30;;;;;;;13.38;5.38;;;9.10;99.90;;;;;;5069465;28;20115;-47
2021/10/12 04:11:56;;;;;;;11.45;5.97;;;9.00;99.90;;;;;;5069447;28;20063;-46
2021/10/12 04:14:21;;;;;;;15.20;5.97;;;9.00;99.90;;;;;;5069870;28;20082;-46
2021/10/12 04:16:47;;;;;;;17.10;6.68;;;9.00;99.90;;;;;;5051541;28;20028;-46
2021/10/12 04:19:12;;;;;;;12.85;6.53;;;9.00;99.90;;;;;;5068512;28;20028;-46
2021/10/12 04:21:38;;;;;;;14.93;6.78;;;9.00;99.90;;;;;;5069292;28;20036;-46
2021/10/12 04:24:04;;;;;;;10.90;6.32;;;9.00;99.90;;;;;;5069249;28;20043;-46
2021/10/12 04:26:29;;;;;;;15.63;7.65;;;9.00;99.90;;;;;;5069245;28;20042;-47
2021/10/12 04:28:55;;;;;;;15.60;7.55;;;9.00;99.90;;;;;;5068601;28;20119;-47
2021/10/12 04:31:21;;;;;;;13.90;7.60;;;9.00;99.90;;;;;;5068809;28;20059;-47
2021/10/12 04:33:46;;;;;;;15.85;5.85;;;9.00;99.90;;;;;;5068168;28;20039;-45
2021/10/12 04:36:12;;;;;;;11.65;6.25;;;8.90;99.90;;;;;;5068450;28;20029;-45
2021/10/12 04:38:38;;;;;;;11.45;7.25;;;9.00;99.90;;;;;;5068343;28;20067;-47
2021/10/12 04:41:03;;;;;;;14.80;6.45;;;8.90;99.90;;;;;;5068635;28;20375;-49
2021/10/12 04:43:29;;;;;;;14.73;6.95;;;9.00;99.90;;;;;;5068752;28;20036;-48
2021/10/12 04:45:54;;;;;;;16.67;8.00;;;9.00;99.90;;;;;;5068495;28;20063;-46
2021/10/12 04:48:20;;;;;;;14.13;8.20;;;8.90;99.90;;;;;;5067899;28;20051;-46
2021/10/12 04:50:45;;;;;;;15.77;8.68;;;8.90;99.90;;;;;;5067217;28;20044;-46
2021/10/12 04:53:11;;;;;;;16.95;8.18;;;8.90;99.90;;;;;;5070648;28;20112;-46
2021/10/12 04:55:40;;;;;;;18.90;9.43;;;8.90;99.90;;;;;;5066253;28;20032;-47
2021/10/12 04:58:07;;;;;;;13.77;8.25;;;8.90;99.90;;;;;;5048098;28;20028;-46
2021/10/12 05:00:32;;;;;;;13.98;7.63;;;8.90;99.90;;;;;;5068066;28;20043;-48
2021/10/12 05:02:59;;;;;;;14.80;7.57;;;8.90;99.90;;;;;;5068352;28;20037;-46
2021/10/12 05:05:25;;;;;;;14.15;6.85;;;8.90;99.90;;;;;;5045704;28;20033;-46
2021/10/12 05:07:50;;;;;;;12.50;7.80;;;8.90;99.90;;;;;;5048845;28;20115;-46
2021/10/12 05:10:15;;;;;;;14.88;7.22;;;8.90;99.90;;;;;;5067518;28;20036;-46
2021/10/12 05:12:41;;;;;;;15.15;8.13;;;8.90;99.90;;;;;;5067441;28;20394;-46
2021/10/12 05:15:07;;;;;;;11.95;7.95;;;8.90;99.90;;;;;;5066548;28;20188;-47
2021/10/12 05:17:36;;;;;;;16.58;8.73;;;8.90;99.90;;;;;;5049046;28;20032;-46
2021/10/12 05:20:04;;;;;;;17.40;8.52;;;8.90;99.90;;;;;;5057631;28;20048;-46
2021/10/12 05:22:30;;;;;;;12.85;6.82;;;8.90;99.90;;;;;;5049893;28;20506;-46
2021/10/12 05:24:55;;;;;;;11.38;6.95;;;8.90;99.90;;;;;;5067717;28;20256;-45
2021/10/12 05:27:21;;;;;;;12.98;7.95;;;8.90;99.90;;;;;;5067089;28;20494;-46
2021/10/12 05:29:47;;;;;;;16.45;8.15;;;8.80;99.90;;;;;;5066827;28;20518;-46
2021/10/12 05:32:12;;;;;;;19.10;8.88;;;8.90;99.90;;;;;;5067422;28;20033;-45
2021/10/12 05:34:38;;;;;;;13.27;8.45;;;8.80;99.90;;;;;;5068003;28;20083;-45
2021/10/12 05:37:03;;;;;;;11.65;8.30;;;8.80;99.90;;;;;;5049132;28;20481;-46
2021/10/12 05:39:29;;;;;;;11.38;8.77;;;8.90;99.90;;;;;;5049871;28;20032;-45
2021/10/12 05:41:58;;;;;;;17.98;8.90;;;8.90;99.90;;;;;;5067840;28;20409;-45
2021/10/12 05:44:23;;;;;;;15.73;8.55;;;8.90;99.90;;;;;;5081743;28;20111;-49
2021/10/12 05:46:49;;;;;;;13.52;8.75;;;8.80;99.90;;;;;;5091256;28;20100;-46
2021/10/12 05:49:15;;;;;;;10.80;8.25;;;8.80;99.90;;;;;;5069973;28;20052;-46
2021/10/12 05:51:46;;;;;;;12.27;8.20;;;8.80;99.90;;;;;;5071412;28;20070;-45
2021/10/12 05:54:16;;;;;;;13.30;8.90;;;8.80;99.90;;;;;;5077308;28;20074;-47
2021/10/12 05:56:55;;;;;;;14.27;8.30;;;8.80;99.90;;;;;;5091189;28;20024;-47
2021/10/12 05:59:20;;;;;;;11.00;7.55;;;8.80;99.90;;;;;;5090683;28;20036;-46
2021/10/12 06:01:46;;;;;;;8.85;6.70;;;8.80;99.90;;;;;;5091529;28;20283;-47
2021/10/12 06:04:11;;;;;;;8.15;5.78;;;8.80;99.90;;;;;;5091026;28;20040;-45
2021/10/12 06:06:37;;;;;;;10.57;6.90;;;8.80;99.90;;;;;;5074456;28;20036;-46
2021/10/12 06:09:03;;;;;;;11.80;7.28;;;8.90;99.90;;;;;;5070718;28;20486;-46
2021/10/12 06:11:29;;;;;;;14.32;7.68;;;8.90;99.90;;;;;;5071432;28;20033;-47
2021/10/12 06:13:56;;;;;;;13.32;6.85;;;8.90;99.90;;;;;;5071343;28;20040;-46
2021/10/12 06:16:22;;;;;;;12.18;7.35;;;8.90;99.90;;;;;;5052957;28;20410;-47
2021/10/12 06:18:48;;;;;;;14.35;7.05;;;8.90;99.90;;;;;;5052002;28;20036;-47
2021/10/12 06:21:13;;;;;;;10.98;6.35;;;8.90;99.90;;;;;;5070728;28;20487;-46
2021/10/12 06:23:40;;;;;;;10.32;6.35;;;8.90;99.90;;;;;;5071155;28;20016;-47
2021/10/12 06:26:06;;;;;;;8.70;6.00;;;8.90;99.90;;;;;;5071086;28;20378;-46
2021/10/12 06:28:31;;;;;;;11.20;6.15;;;9.00;99.90;;;;;;5070221;28;20035;-46
2021/10/12 06:30:57;;;;;;;10.13;6.40;;;9.00;99.90;;;;;;5070791;28;20502;-47
2021/10/12 06:33:22;;;;;;;14.32;7.03;;;9.00;99.90;;;;;;5070769;28;20043;-46
2021/10/12 06:35:48;;;;;;;12.32;5.95;;;9.00;99.90;;;;;;5070802;28;20117;-47
2021/10/12 06:38:13;;;;;;;16.55;7.13;;;9.00;99.90;;;;;;5069823;28;20090;-46
2021/10/12 06:40:39;;;;;;;14.02;7.95;;;8.90;99.90;;;;;;5070493;28;20036;-46
2021/10/12 06:43:04;;;;;;;14.95;7.65;;;9.00;99.90;;;;;;5069336;28;20191;-46
2021/10/12 06:45:30;;;;;;;12.52;7.88;;;9.00;99.90;;;;;;5070492;28;20251;-46
2021/10/12 06:47:56;;;;;;;10.75;6.78;;;9.00;99.90;;;;;;5068308;28;20433;-46
2021/10/12 06:50:23;;;;;;;13.57;7.90;;;9.00;99.90;;;;;;5064937;28;20156;-46
2021/10/12 06:52:48;;;;;;;12.82;7.28;;;8.90;99.90;;;;;;5070222;28;20509;-47
2021/10/12 06:55:15;;;;;;;12.80;7.18;;;9.00;99.90;;;;;;5069926;28;20036;-47
2021/10/12 06:57:41;;;;;;;15.70;8.73;;;9.00;99.90;;;;;;5069107;28;20282;-49
2021/10/12 07:00:11;;;;;;;12.38;7.68;;;9.10;99.90;;;;;;5070104;28;20524;-47
2021/10/12 07:02:37;;;;;;;14.27;7.57;;;9.10;99.90;;;;;;5070323;28;20154;-49
2021/10/12 07:05:04;;;;;;;14.18;7.30;;;9.20;99.90;;;;;;5068879;28;20504;-48
2021/10/12 07:07:31;;;;;;;13.82;7.13;;;9.20;99.90;;;;;;5069192;28;20047;-48
2021/10/12 07:09:57;;;;;;;14.75;6.75;;;9.20;99.90;;;;;;5069177;28;20031;-46
2021/10/12 07:12:22;;;;;;;11.98;6.68;;;9.20;99.90;;;;;;5070119;28;20037;-47
2021/10/12 07:14:48;;;;;;;12.63;6.25;;;9.30;99.90;;;;;;5070327;28;20362;-46
2021/10/12 07:17:13;;;;;;;12.13;6.13;;;9.30;99.90;;;;;;5069035;28;20607;-46
2021/10/12 07:19:39;;;;;;;7.88;5.43;;;9.30;99.90;;;;;;5069181;28;20020;-46
2021/10/12 07:22:04;;;;;;;8.93;4.57;;;9.30;99.90;;;;;;5069700;28;20486;-46
2021/10/12 07:24:30;;;;;;;11.23;4.38;;;9.30;99.90;;;;;;5069643;28;20103;-46
2021/10/12 07:26:55;;;;;;;8.63;4.72;;;9.30;99.90;;;;;;5069574;28;20533;-47
2021/10/12 07:29:21;;;;;;;10.02;4.60;;;9.40;99.90;;;;;;5068749;28;20078;-46
2021/10/12 07:31:46;;;;;;;8.68;3.50;;;9.50;99.90;;;;;;5069966;28;20033;-46
2021/10/12 07:34:12;;;;;;;8.30;3.15;;;9.40;99.90;;;;;;5070314;28;20048;-47
2021/10/12 07:36:38;;;;;;;5.97;2.78;;;9.50;99.90;;;;;;5069832;28;20044;-47
2021/10/12 07:39:05;;;;;;;5.93;2.80;;;9.50;99.90;;;;;;5069332;28;20529;-48
2021/10/12 07:41:31;;;;;;;7.07;2.70;;;9.50;99.90;;;;;;5051124;28;20173;-46
2021/10/12 07:43:57;;;;;;;5.30;2.50;;;9.50;99.90;;;;;;5070363;28;20034;-47
2021/10/12 07:46:22;;;;;;;4.80;2.22;;;9.50;99.90;;;;;;5069561;28;20510;-48
2021/10/12 07:48:48;;;;;;;4.97;2.58;;;9.50;99.90;;;;;;5069412;28;20127;-47
2021/10/12 07:54:45;;;;;;;4.57;2.08;;;9.60;99.90;;;;;;5067810;28;20082;-45
2021/10/12 07:57:14;;;;;;;8.27;3.15;;;9.40;99.90;;;;;;5065109;28;20035;-46
2021/10/12 07:59:40;;;;;;;8.15;2.90;;;9.40;99.90;;;;;;5068199;28;20037;-44
2021/10/12 08:02:07;;;;;;;5.63;2.35;;;9.50;99.90;;;;;;5068143;28;20032;-45
2021/10/12 08:04:32;;;;;;;3.58;1.88;;;9.50;99.90;;;;;;5067446;28;20544;-44
2021/10/12 08:06:58;;;;;;;9.77;4.57;;;9.50;99.90;;;;;;5068167;28;20036;-45
2021/10/12 08:09:23;;;;;;;4.13;2.60;;;9.60;99.90;;;;;;5066903;28;20560;-45
2021/10/12 08:11:49;;;;;;;6.32;3.00;;;9.60;99.90;;;;;;5067923;28;20053;-45
2021/10/12 08:14:18;;;;;;;9.63;2.45;;;9.70;99.90;;;;;;5050506;28;20108;-45
2021/10/12 08:16:44;;;;;;;5.15;2.25;;;9.80;99.90;;;;;;5067809;28;20024;-45
2021/10/12 08:19:10;;;;;;;5.78;1.88;;;10.00;99.90;;;;;;5066921;28;20029;-45
2021/10/12 08:21:36;;;;;;;6.10;2.00;;;10.10;99.90;;;;;;5068547;28;20603;-46
2021/10/12 08:24:03;;;;;;;6.53;2.03;;;10.10;99.90;;;;;;5068362;28;20077;-45
2021/10/12 08:26:28;;;;;;;6.38;2.00;;;10.20;99.90;;;;;;5068250;28;20229;-44
2021/10/12 08:28:55;;;;;;;5.30;1.85;;;10.20;99.90;;;;;;5067781;28;20491;-45
2021/10/12 08:31:21;;;;;;;7.10;2.38;;;10.30;99.90;;;;;;5067777;28;20071;-45
2021/10/12 08:33:47;;;;;;;3.85;1.48;;;10.40;99.90;;;;;;5068665;28;20478;-44
2021/10/12 08:36:13;;;;;;;2.95;1.63;;;10.60;99.90;;;;;;5067545;28;20059;-45
2021/10/12 08:38:41;;;;;;;6.40;1.70;;;10.70;99.90;;;;;;5066945;28;20028;-45
2021/10/12 08:41:06;;;;;;;3.05;1.27;;;10.80;99.90;;;;;;5067627;28;20036;-45
2021/10/12 08:43:34;;;;;;;1.70;1.40;;;10.70;99.90;;;;;;5067962;28;20047;-44
2021/10/12 08:46:00;;;;;;;6.47;1.30;;;10.70;99.90;;;;;;5050037;28;20186;-44
2021/10/12 08:48:33;;;;;;;3.00;1.10;;;10.80;99.90;;;;;;5066559;28;20032;-47
2021/10/12 08:51:00;;;;;;;3.25;1.38;;;10.90;99.90;;;;;;5067884;28;20041;-45
2021/10/12 08:53:27;;;;;;;2.75;1.60;;;11.00;99.90;;;;;;5065073;28;20115;-45
2021/10/12 08:55:53;;;;;;;2.80;1.58;;;11.10;99.90;;;;;;5067240;28;20260;-44
2021/10/12 08:58:18;;;;;;;3.03;1.15;;;11.10;99.90;;;;;;5066256;28;20036;-46
2021/10/12 09:00:44;;;;;;;5.03;2.03;;;11.40;99.90;;;;;;5066369;28;20044;-45
2021/10/12 09:05:52;;;;;;;2.17;1.40;;;11.90;99.90;;;;;;5061659;28;20041;-44
2021/10/12 09:08:38;;;;;;;3.50;1.55;;;12.70;99.90;;;;;;5066413;28;20430;-45
2021/10/12 09:11:25;;;;;;;3.08;1.40;;;13.50;99.90;;;;;;5064118;28;20455;-45
2021/10/12 09:13:53;;;;;;;2.45;1.23;;;13.90;99.90;;;;;;5064032;28;20033;-45
2021/10/12 09:16:21;;;;;;;2.50;1.17;;;14.90;99.90;;;;;;5067574;28;20020;-45
2021/10/12 09:18:50;;;;;;;1.27;0.98;;;16.00;99.90;;;;;;5066533;28;20108;-45
2021/10/12 09:21:23;;;;;;;1.05;0.98;;;16.80;99.90;;;;;;5067243;28;20041;-46
2021/10/12 09:23:50;;;;;;;3.03;0.82;;;16.90;99.90;;;;;;5067412;28;20032;-45
2021/10/12 09:26:21;;;;;;;2.47;1.00;;;16.40;99.90;;;;;;5065966;28;20039;-45
2021/10/12 09:28:47;;;;;;;3.20;0.90;;;15.90;99.90;;;;;;5048441;28;20337;-45
2021/10/12 09:31:12;;;;;;;2.97;1.27;;;15.50;99.90;;;;;;5067255;28;20123;-44
2021/10/12 09:33:49;;;;;;;3.13;1.02;;;14.70;99.90;;;;;;5067595;28;20119;-45
2021/10/12 09:36:32;;;;;;;3.67;0.90;;;15.00;99.90;;;;;;5066482;28;20048;-49
2021/10/12 09:38:58;;;;;;;1.08;0.77;;;15.80;99.90;;;;;;5062746;28;20033;-49
2021/10/12 09:41:27;;;;;;;3.20;1.15;;;16.00;99.90;;;;;;5067024;28;20042;-49
2021/10/12 09:44:06;;;;;;;2.47;1.00;;;15.80;99.90;;;;;;5047770;28;20029;-49
2021/10/12 09:46:33;;;;;;;4.28;1.00;;;15.40;99.90;;;;;;5063546;28;20266;-49
2021/10/12 09:49:20;;;;;;;2.63;1.25;;;15.50;99.90;;;;;;5065032;28;20112;-48
2021/10/12 09:51:54;;;;;;;2.83;1.05;;;16.00;99.90;;;;;;5048707;28;20445;-50
2021/10/12 09:54:21;;;;;;;3.97;0.75;;;16.70;99.90;;;;;;5052132;28;20032;-50
2021/10/12 09:56:47;;;;;;;3.10;0.98;;;16.60;99.90;;;;;;5065416;28;20411;-49
2021/10/12 09:59:13;;;;;;;3.70;1.00;;;16.10;99.90;;;;;;5066371;28;20040;-48
2021/10/12 10:01:39;;;;;;;4.40;1.55;;;15.30;99.90;;;;;;5067323;28;20502;-50
2021/10/12 10:04:06;;;;;;;6.22;1.67;;;14.90;99.90;;;;;;5067033;28;20033;-48
2021/10/12 10:06:32;;;;;;;6.28;1.40;;;14.80;99.90;;;;;;5066621;28;20040;-46
2021/10/12 10:08:58;;;;;;;5.10;1.13;;;15.70;99.90;;;;;;5055766;28;20043;-49
2021/10/12 10:11:26;;;;;;;2.20;1.00;;;15.70;99.90;;;;;;5066748;28;20048;-50
2021/10/12 10:13:51;;;;;;;4.60;1.00;;;15.60;99.90;;;;;;5067487;28;20048;-48
2021/10/12 10:16:17;;;;;;;3.13;1.15;;;17.30;99.90;;;;;;5067317;28;20043;-51
2021/10/12 10:18:45;;;;;;;4.05;1.00;;;19.10;99.90;;;;;;5065949;28;20020;-50
2021/10/12 10:21:11;;;;;;;6.53;1.30;;;19.60;99.90;;;;;;5066773;28;20036;-50
2021/10/12 10:23:55;;;;;;;3.90;1.20;;;19.20;96.30;;;;;;5065216;28;20497;-51
2021/10/12 10:26:26;;;;;;;5.15;1.52;;;18.70;96.40;;;;;;5047510;28;20402;-51
2021/10/12 10:28:53;;;;;;;3.72;1.05;;;19.40;96.10;;;;;;5066709;28;20021;-50
2021/10/12 10:31:37;;;;;;;4.45;1.20;;;18.60;95.90;;;;;;5067940;28;20132;-48
2021/10/12 10:34:29;;;;;;;3.70;1.17;;;18.10;97.10;;;;;;5070874;28;20029;-49
2021/10/12 10:37:16;;;;;;;2.30;0.85;;;19.60;95.90;;;;;;5052451;28;20325;-50
2021/10/12 10:40:23;;;;;;;3.13;1.20;;;20.90;91.90;;;;;;5070311;28;20068;-50
2021/10/12 10:42:53;;;;;;;2.90;1.20;;;21.90;88.90;;;;;;5069872;28;20379;-49
2021/10/12 10:45:19;;;;;;;3.35;0.95;;;21.60;85.80;;;;;;5069029;28;20017;-48
2021/10/12 10:47:45;;;;;;;3.95;1.38;;;21.00;80.80;;;;;;5069866;28;20030;-49
2021/10/12 10:50:14;;;;;;;5.18;1.30;;;21.50;83.20;;;;;;5069424;28;20040;-51
2021/10/12 10:52:43;;;;;;;2.83;0.88;;;21.90;81.30;;;;;;5070403;28;20028;-50
2021/10/12 10:55:10;;;;;;;2.08;0.85;;;21.40;81.60;;;;;;5069828;28;20033;-49
2021/10/12 10:57:36;;;;;;;3.25;1.17;;;22.00;79.20;;;;;;5069510;28;20142;-50
2021/10/12 11:00:18;;;;;;;2.80;0.93;;;22.60;75.80;;;;;;5068967;28;20497;-50
2021/10/12 11:02:46;;;;;;;8.02;2.40;;;21.50;74.10;;;;;;5070089;28;20118;-47
2021/10/12 11:05:37;;;;;;;2.25;0.85;;;20.10;76.20;;;;;;5064682;28;20231;-50
2021/10/12 11:08:30;;;;;;;2.97;1.40;;;18.90;82.40;;;;;;5061645;28;20029;-47
2021/10/12 11:11:04;;;;;;;4.55;1.40;;;17.60;85.50;;;;;;5046705;28;20052;-49
2021/10/12 11:13:42;;;;;;;2.72;0.70;;;16.70;88.20;;;;;;5068116;28;20028;-48
2021/10/12 11:16:16;;;;;;;4.97;1.02;;;17.40;89.10;;;;;;5069004;28;20024;-47
2021/10/12 11:18:44;;;;;;;3.70;1.15;;;18.30;86.10;;;;;;5068541;28;20127;-48
2021/10/12 11:21:12;;;;;;;3.75;1.10;;;19.20;80.20;;;;;;5069105;28;20044;-50
2021/10/12 11:23:47;;;;;;;4.95;1.45;;;19.50;77.70;;;;;;5069547;28;20025;-50
2021/10/12 11:26:16;;;;;;;3.35;1.40;;;19.20;75.90;;;;;;5069778;28;20135;-48
2021/10/12 11:28:46;;;;;;;1.83;1.08;;;19.60;75.80;;;;;;5068276;28;20563;-49
2021/10/12 11:31:15;;;;;;;1.65;0.90;;;20.40;75.10;;;;;;5068986;28;20119;-48
2021/10/12 11:33:49;;;;;;;6.82;0.90;;;20.50;70.40;;;;;;5069511;28;20112;-49
2021/10/12 11:36:17;;;;;;;2.78;0.95;;;21.00;73.70;;;;;;5066986;28;20498;-47
2021/10/12 11:38:46;;;;;;;1.85;0.73;;;21.40;71.90;;;;;;5050557;28;20029;-50
2021/10/12 11:41:15;;;;;;;2.13;0.82;;;22.30;68.50;;;;;;5068944;28;20127;-50
2021/10/12 11:43:42;;;;;;;2.97;0.90;;;22.30;65.30;;;;;;5050766;28;20053;-50
2021/10/12 11:46:09;;;;;;;3.38;1.17;;;22.10;66.80;;;;;;5068841;28;20029;-50
2021/10/12 11:48:38;;;;;;;3.70;0.77;;;21.40;66.90;;;;;;5068592;28;20090;-47
2021/10/12 11:51:19;;;;;;;3.20;0.93;;;21.60;68.70;;;;;;5068148;28;20043;-50
2021/10/12 11:53:46;;;;;;;3.72;0.80;;;22.30;67.00;;;;;;5069012;28;20025;-47
2021/10/12 11:56:13;;;;;;;1.75;1.20;;;22.90;62.20;;;;;;5068537;28;20033;-51
2021/10/12 11:58:40;;;;;;;2.28;1.10;;;23.20;64.90;;;;;;5067596;28;20105;-50
2021/10/12 12:01:09;;;;;;;3.70;0.90;;;23.60;62.40;;;;;;5068242;28;20040;-49
2021/10/12 12:03:35;;;;;;;1.17;0.80;;;23.90;60.40;;;;;;5068927;28;20481;-50
2021/10/12 12:06:01;;;;;;;1.92;1.00;;;24.10;56.70;;;;;;5068168;28;20066;-49
2021/10/12 12:08:27;;;;;;;3.85;0.95;;;24.20;56.90;;;;;;5067106;28;20273;-50
2021/10/12 12:10:54;;;;;;;1.63;0.93;;;23.50;56.30;;;;;;5067728;28;20085;-48
2021/10/12 12:13:21;;;;;;;3.67;1.08;;;23.30;56.60;;;;;;5068439;28;20029;-50
2021/10/12 12:15:47;;;;;;;2.92;1.05;;;22.10;59.70;;;;;;5068207;28;20493;-50
2021/10/12 12:18:17;;;;;;;3.38;1.30;;;20.80;62.10;;;;;;5066486;28;20024;-49
2021/10/12 12:20:58;;;;;;;2.55;1.10;;;19.60;63.40;;;;;;5067722;28;20029;-49
2021/10/12 12:23:43;;;;;;;3.03;0.98;;;19.20;68.00;;;;;;5068388;28;20137;-50
2021/10/12 12:26:19;;;;;;;3.95;1.20;;;19.50;68.70;;;;;;5069191;28;20436;-47
2021/10/12 12:28:44;;;;;;;5.40;1.25;;;19.90;63.20;;;;;;5066550;28;20276;-49
2021/10/12 12:31:21;;;;;;;5.13;1.15;;;20.00;64.80;;;;;;5068007;28;20513;-48
2021/10/12 12:33:49;;;;;;;4.47;1.02;;;20.20;65.10;;;;;;5066855;28;20100;-48
2021/10/12 12:36:16;;;;;;;3.97;1.08;;;20.40;64.80;;;;;;5049494;28;20127;-47
2021/10/12 12:38:42;;;;;;;3.45;1.38;;;20.50;62.20;;;;;;5065491;28;20663;-48
2021/10/12 12:41:23;;;;;;;3.45;1.10;;;20.30;63.60;;;;;;5068055;28;20037;-48
2021/10/12 12:43:57;;;;;;;1.75;1.10;;;20.30;66.20;;;;;;5049595;28;20040;-48
2021/10/12 12:46:25;;;;;;;2.95;0.90;;;20.10;67.60;;;;;;5067657;28;20043;-48
2021/10/12 12:49:04;;;;;;;6.35;1.30;;;20.10;64.90;;;;;;5067295;28;20108;-47
2021/10/12 12:51:31;;;;;;;2.58;1.13;;;20.30;66.10;;;;;;5064469;28;21014;-50
2021/10/12 12:53:56;;;;;;;5.13;1.13;;;20.40;62.80;;;;;;5067769;28;20440;-47
2021/10/12 12:56:31;;;;;;;1.75;0.70;;;20.20;65.40;;;;;;5067015;28;20028;-50